sensor_id;sensor_type;location;lat;lon;timestamp;pressure;altitude;pressure_sealevel;temperature;humidity
68107;BME280;54892;47.488;19.026;2024-01-30T00:02:09;102330.19;;;0.01;88.81
68107;BME280;54892;47.488;19.026;2024-01-30T00:05:32;102323.62;;;-0.03;88.58
68107;BME280;54892;47.488;19.026;2024-01-30T00:08:55;102330.56;;;-0.04;89.08
68107;BME280;54892;47.488;19.026;2024-01-30T00:12:18;102328.34;;;-0.08;89.80
68107;BME280;54892;47.488;19.026;2024-01-30T00:15:42;102332.66;;;-0.19;90.33
68107;BME280;54892;47.488;19.026;2024-01-30T00:19:05;102329.16;;;-0.08;90.22
68107;BME280;54892;47.488;19.026;2024-01-30T00:22:30;102329.44;;;-0.11;90.38
68107;BME280;54892;47.488;19.026;2024-01-30T00:25:53;102326.00;;;-0.11;90.13
68107;BME280;54892;47.488;19.026;2024-01-30T00:29:16;102329.16;;;-0.08;89.82
68107;BME280;54892;47.488;19.026;2024-01-30T00:32:42;102338.50;;;-0.05;89.44
68107;BME280;54892;47.488;19.026;2024-01-30T00:36:06;102336.84;;;-0.06;89.08
68107;BME280;54892;47.488;19.026;2024-01-30T00:39:29;102342.28;;;-0.09;88.78
68107;BME280;54892;47.488;19.026;2024-01-30T00:42:52;102347.88;;;-0.14;89.09
68107;BME280;54892;47.488;19.026;2024-01-30T00:46:15;102346.84;;;-0.23;89.34
68107;BME280;54892;47.488;19.026;2024-01-30T00:49:40;102341.16;;;-0.17;89.08
68107;BME280;54892;47.488;19.026;2024-01-30T00:53:03;102349.91;;;-0.18;89.04
68107;BME280;54892;47.488;19.026;2024-01-30T00:56:27;102345.88;;;-0.22;88.76
68107;BME280;54892;47.488;19.026;2024-01-30T00:59:50;102344.28;;;-0.34;89.17
68107;BME280;54892;47.488;19.026;2024-01-30T01:03:13;102341.47;;;-0.42;89.45
68107;BME280;54892;47.488;19.026;2024-01-30T01:06:38;102334.78;;;-0.45;89.74
68107;BME280;54892;47.488;19.026;2024-01-30T01:10:01;102338.78;;;-0.41;89.75
68107;BME280;54892;47.488;19.026;2024-01-30T01:13:24;102335.72;;;-0.46;89.88
68107;BME280;54892;47.488;19.026;2024-01-30T01:16:47;102331.34;;;-0.46;90.01
68107;BME280;54892;47.488;19.026;2024-01-30T01:20:11;102327.56;;;-0.41;89.39
68107;BME280;54892;47.488;19.026;2024-01-30T01:23:35;102322.28;;;-0.51;89.65
68107;BME280;54892;47.488;19.026;2024-01-30T01:26:58;102329.13;;;-0.50;89.60
68107;BME280;54892;47.488;19.026;2024-01-30T01:30:21;102319.38;;;-0.58;90.10
68107;BME280;54892;47.488;19.026;2024-01-30T01:33:44;102321.16;;;-0.58;90.29
68107;BME280;54892;47.488;19.026;2024-01-30T01:37:08;102319.25;;;-0.56;90.19
68107;BME280;54892;47.488;19.026;2024-01-30T01:40:32;102316.78;;;-0.58;90.30
68107;BME280;54892;47.488;19.026;2024-01-30T01:43:55;102318.19;;;-0.54;89.99
68107;BME280;54892;47.488;19.026;2024-01-30T01:47:18;102309.91;;;-0.48;89.52
68107;BME280;54892;47.488;19.026;2024-01-30T01:50:42;102314.13;;;-0.47;89.09
68107;BME280;54892;47.488;19.026;2024-01-30T01:54:06;102310.34;;;-0.42;88.62
68107;BME280;54892;47.488;19.026;2024-01-30T01:57:31;102309.69;;;-0.56;88.75
68107;BME280;54892;47.488;19.026;2024-01-30T02:00:54;102315.63;;;-0.65;89.29
68107;BME280;54892;47.488;19.026;2024-01-30T02:04:19;102306.94;;;-0.75;89.99
68107;BME280;54892;47.488;19.026;2024-01-30T02:07:42;102314.47;;;-0.72;90.30
68107;BME280;54892;47.488;19.026;2024-01-30T02:11:06;102317.38;;;-0.66;90.46
68107;BME280;54892;47.488;19.026;2024-01-30T02:14:30;102318.56;;;-0.58;89.67
68107;BME280;54892;47.488;19.026;2024-01-30T02:17:54;102303.00;;;-0.58;89.30
68107;BME280;54892;47.488;19.026;2024-01-30T02:21:19;102306.66;;;-0.61;89.03
68107;BME280;54892;47.488;19.026;2024-01-30T02:24:42;102304.34;;;-0.75;89.56
68107;BME280;54892;47.488;19.026;2024-01-30T02:28:05;102299.16;;;-0.75;89.89
68107;BME280;54892;47.488;19.026;2024-01-30T02:31:28;102303.44;;;-0.86;90.25
68107;BME280;54892;47.488;19.026;2024-01-30T02:34:51;102307.66;;;-0.85;90.68
68107;BME280;54892;47.488;19.026;2024-01-30T02:38:16;102308.37;;;-0.83;90.83
68107;BME280;54892;47.488;19.026;2024-01-30T02:41:39;102304.84;;;-0.82;90.00
68107;BME280;54892;47.488;19.026;2024-01-30T02:45:03;102304.94;;;-0.83;89.96
68107;BME280;54892;47.488;19.026;2024-01-30T02:48:26;102311.06;;;-0.84;90.33
68107;BME280;54892;47.488;19.026;2024-01-30T02:51:49;102315.13;;;-0.92;90.84
68107;BME280;54892;47.488;19.026;2024-01-30T02:55:14;102307.81;;;-0.86;90.78
68107;BME280;54892;47.488;19.026;2024-01-30T02:58:39;102301.78;;;-0.87;90.56
68107;BME280;54892;47.488;19.026;2024-01-30T03:02:03;102304.75;;;-0.92;90.76
68107;BME280;54892;47.488;19.026;2024-01-30T03:05:26;102309.34;;;-0.95;90.94
68107;BME280;54892;47.488;19.026;2024-01-30T03:08:49;102306.28;;;-1.00;91.19
68107;BME280;54892;47.488;19.026;2024-01-30T03:12:13;102305.94;;;-0.96;91.45
68107;BME280;54892;47.488;19.026;2024-01-30T03:15:36;102303.44;;;-0.86;90.59
68107;BME280;54892;47.488;19.026;2024-01-30T03:19:00;102298.16;;;-0.96;90.36
68107;BME280;54892;47.488;19.026;2024-01-30T03:22:24;102305.13;;;-0.96;90.53
68107;BME280;54892;47.488;19.026;2024-01-30T03:25:47;102310.03;;;-0.93;90.69
68107;BME280;54892;47.488;19.026;2024-01-30T03:29:11;102302.16;;;-0.92;91.18
68107;BME280;54892;47.488;19.026;2024-01-30T03:32:34;102317.25;;;-0.97;91.24
68107;BME280;54892;47.488;19.026;2024-01-30T03:35:57;102315.38;;;-1.06;91.86
68107;BME280;54892;47.488;19.026;2024-01-30T03:39:20;102313.59;;;-1.05;92.15
68107;BME280;54892;47.488;19.026;2024-01-30T03:42:43;102309.16;;;-1.15;92.74
68107;BME280;54892;47.488;19.026;2024-01-30T03:46:08;102304.06;;;-1.05;92.94
68107;BME280;54892;47.488;19.026;2024-01-30T03:49:31;102298.19;;;-1.07;92.50
68107;BME280;54892;47.488;19.026;2024-01-30T03:52:54;102291.25;;;-1.18;92.79
68107;BME280;54892;47.488;19.026;2024-01-30T03:56:17;102289.50;;;-1.17;92.82
68107;BME280;54892;47.488;19.026;2024-01-30T03:59:41;102295.81;;;-1.10;92.61
68107;BME280;54892;47.488;19.026;2024-01-30T04:03:06;102300.78;;;-1.07;92.63
68107;BME280;54892;47.488;19.026;2024-01-30T04:06:29;102292.31;;;-1.20;93.19
68107;BME280;54892;47.488;19.026;2024-01-30T04:09:52;102289.31;;;-1.04;92.59
68107;BME280;54892;47.488;19.026;2024-01-30T04:13:15;102289.44;;;-0.95;91.62
68107;BME280;54892;47.488;19.026;2024-01-30T04:16:38;102285.09;;;-0.94;91.17
68107;BME280;54892;47.488;19.026;2024-01-30T04:20:04;102284.28;;;-1.06;91.43
68107;BME280;54892;47.488;19.026;2024-01-30T04:23:29;102286.50;;;-1.01;91.31
68107;BME280;54892;47.488;19.026;2024-01-30T04:26:52;102270.59;;;-1.08;91.29
68107;BME280;54892;47.488;19.026;2024-01-30T04:30:15;102286.06;;;-1.18;91.73
68107;BME280;54892;47.488;19.026;2024-01-30T04:33:38;102285.25;;;-1.18;92.05
68107;BME280;54892;47.488;19.026;2024-01-30T04:37:03;102287.22;;;-1.22;92.34
68107;BME280;54892;47.488;19.026;2024-01-30T04:40:26;102287.84;;;-1.30;92.95
68107;BME280;54892;47.488;19.026;2024-01-30T04:43:49;102282.56;;;-1.28;93.63
68107;BME280;54892;47.488;19.026;2024-01-30T04:47:12;102289.12;;;-1.24;93.98
68107;BME280;54892;47.488;19.026;2024-01-30T04:50:35;102283.22;;;-1.15;93.29
68107;BME280;54892;47.488;19.026;2024-01-30T04:54:00;102296.41;;;-1.18;93.25
68107;BME280;54892;47.488;19.026;2024-01-30T04:57:23;102292.69;;;-1.25;93.16
68107;BME280;54892;47.488;19.026;2024-01-30T05:00:46;102295.25;;;-1.14;92.82
68107;BME280;54892;47.488;19.026;2024-01-30T05:04:13;102297.50;;;-1.20;92.42
68107;BME280;54892;47.488;19.026;2024-01-30T05:07:36;102301.59;;;-1.18;92.28
68107;BME280;54892;47.488;19.026;2024-01-30T05:11:01;102305.16;;;-1.30;92.67
68107;BME280;54892;47.488;19.026;2024-01-30T05:14:25;102305.75;;;-1.27;92.85
68107;BME280;54892;47.488;19.026;2024-01-30T05:17:48;102303.84;;;-1.25;92.36
68107;BME280;54892;47.488;19.026;2024-01-30T05:21:11;102314.69;;;-1.31;92.63
68107;BME280;54892;47.488;19.026;2024-01-30T05:24:35;102319.50;;;-1.38;92.99
68107;BME280;54892;47.488;19.026;2024-01-30T05:28:00;102319.28;;;-1.34;92.92
68107;BME280;54892;47.488;19.026;2024-01-30T05:31:30;102328.00;;;-1.35;92.99
68107;BME280;54892;47.488;19.026;2024-01-30T05:34:53;102326.56;;;-1.40;93.04
68107;BME280;54892;47.488;19.026;2024-01-30T05:38:16;102327.91;;;-1.34;93.03
68107;BME280;54892;47.488;19.026;2024-01-30T05:41:39;102332.13;;;-1.33;92.92
68107;BME280;54892;47.488;19.026;2024-01-30T05:45:05;102330.47;;;-1.34;92.72
68107;BME280;54892;47.488;19.026;2024-01-30T05:48:28;102331.78;;;-1.28;92.73
68107;BME280;54892;47.488;19.026;2024-01-30T05:51:51;102336.47;;;-1.33;92.94
68107;BME280;54892;47.488;19.026;2024-01-30T05:55:14;102335.75;;;-1.35;93.10
68107;BME280;54892;47.488;19.026;2024-01-30T05:58:37;102330.84;;;-1.27;92.80
68107;BME280;54892;47.488;19.026;2024-01-30T06:02:02;102331.41;;;-1.24;92.69
68107;BME280;54892;47.488;19.026;2024-01-30T06:05:25;102336.81;;;-1.27;93.08
68107;BME280;54892;47.488;19.026;2024-01-30T06:08:49;102334.97;;;-1.36;93.51
68107;BME280;54892;47.488;19.026;2024-01-30T06:12:12;102337.78;;;-1.39;94.16
68107;BME280;54892;47.488;19.026;2024-01-30T06:15:35;102345.78;;;-1.31;94.33
68107;BME280;54892;47.488;19.026;2024-01-30T06:18:59;102338.72;;;-1.17;93.94
68107;BME280;54892;47.488;19.026;2024-01-30T06:22:22;102335.88;;;-1.26;93.88
68107;BME280;54892;47.488;19.026;2024-01-30T06:25:45;102341.19;;;-1.27;93.85
68107;BME280;54892;47.488;19.026;2024-01-30T06:29:09;102334.34;;;-1.17;93.71
68107;BME280;54892;47.488;19.026;2024-01-30T06:32:32;102336.72;;;-1.14;93.27
68107;BME280;54892;47.488;19.026;2024-01-30T06:35:57;102342.59;;;-1.12;93.14
68107;BME280;54892;47.488;19.026;2024-01-30T06:39:20;102344.34;;;-1.12;92.95
68107;BME280;54892;47.488;19.026;2024-01-30T06:42:43;102342.13;;;-1.17;93.08
68107;BME280;54892;47.488;19.026;2024-01-30T06:46:06;102337.19;;;-1.20;93.48
68107;BME280;54892;47.488;19.026;2024-01-30T06:49:29;102338.22;;;-1.11;93.50
68107;BME280;54892;47.488;19.026;2024-01-30T06:52:54;102347.53;;;-1.09;93.28
68107;BME280;54892;47.488;19.026;2024-01-30T06:56:17;102348.59;;;-1.11;93.54
68107;BME280;54892;47.488;19.026;2024-01-30T06:59:42;102342.81;;;-1.03;93.65
68107;BME280;54892;47.488;19.026;2024-01-30T07:03:06;102344.00;;;-0.96;93.74
68107;BME280;54892;47.488;19.026;2024-01-30T07:06:29;102346.00;;;-0.88;94.04
68107;BME280;54892;47.488;19.026;2024-01-30T07:09:53;102350.69;;;-0.82;94.12
68107;BME280;54892;47.488;19.026;2024-01-30T07:13:18;102353.75;;;-0.77;94.17
68107;BME280;54892;47.488;19.026;2024-01-30T07:16:41;102350.53;;;-0.69;94.18
68107;BME280;54892;47.488;19.026;2024-01-30T07:20:05;102349.06;;;-0.51;93.87
68107;BME280;54892;47.488;19.026;2024-01-30T07:23:29;102350.53;;;-0.37;93.71
68107;BME280;54892;47.488;19.026;2024-01-30T07:26:54;102356.50;;;0.08;92.92
68107;BME280;54892;47.488;19.026;2024-01-30T07:30:17;102353.41;;;0.45;90.61
68107;BME280;54892;47.488;19.026;2024-01-30T07:33:40;102361.75;;;0.49;89.61
68107;BME280;54892;47.488;19.026;2024-01-30T07:37:03;102347.06;;;0.59;89.54
68107;BME280;54892;47.488;19.026;2024-01-30T07:40:26;102354.94;;;0.88;88.40
68107;BME280;54892;47.488;19.026;2024-01-30T07:43:51;102344.44;;;1.10;86.81
68107;BME280;54892;47.488;19.026;2024-01-30T07:47:15;102347.25;;;1.28;85.93
68107;BME280;54892;47.488;19.026;2024-01-30T07:50:38;102348.37;;;1.64;84.42
68107;BME280;54892;47.488;19.026;2024-01-30T07:54:01;102344.22;;;1.81;83.24
68107;BME280;54892;47.488;19.026;2024-01-30T07:57:24;102339.53;;;2.15;81.32
68107;BME280;54892;47.488;19.026;2024-01-30T08:00:49;102334.44;;;2.61;80.57
68107;BME280;54892;47.488;19.026;2024-01-30T08:04:13;102334.66;;;3.41;76.51
68107;BME280;54892;47.488;19.026;2024-01-30T08:07:36;102335.03;;;4.09;73.32
68107;BME280;54892;47.488;19.026;2024-01-30T08:10:59;102344.41;;;4.54;70.58
68107;BME280;54892;47.488;19.026;2024-01-30T08:14:22;102346.28;;;4.70;71.11
68107;BME280;54892;47.488;19.026;2024-01-30T08:17:47;102352.50;;;5.54;67.40
68107;BME280;54892;47.488;19.026;2024-01-30T08:21:10;102347.25;;;4.69;68.75
68107;BME280;54892;47.488;19.026;2024-01-30T08:24:33;102353.13;;;3.84;72.33
68107;BME280;54892;47.488;19.026;2024-01-30T08:27:56;102352.41;;;3.38;74.55
68107;BME280;54892;47.488;19.026;2024-01-30T09:59:54;102343.66;;;3.65;83.35
68107;BME280;54892;47.488;19.026;2024-01-30T10:03:17;102343.84;;;3.90;83.10
68107;BME280;54892;47.488;19.026;2024-01-30T10:06:41;102343.31;;;4.04;82.13
68107;BME280;54892;47.488;19.026;2024-01-30T10:10:05;102343.47;;;4.03;81.98
68107;BME280;54892;47.488;19.026;2024-01-30T10:13:29;102352.69;;;3.89;81.91
68107;BME280;54892;47.488;19.026;2024-01-30T10:16:54;102348.72;;;3.85;82.06
68107;BME280;54892;47.488;19.026;2024-01-30T10:20:18;102340.22;;;3.83;82.63
68107;BME280;54892;47.488;19.026;2024-01-30T10:23:43;102342.25;;;3.89;82.61
68107;BME280;54892;47.488;19.026;2024-01-30T10:27:06;102340.53;;;3.79;82.96
68107;BME280;54892;47.488;19.026;2024-01-30T10:30:29;102341.34;;;4.06;82.65
68107;BME280;54892;47.488;19.026;2024-01-30T10:33:54;102328.66;;;4.11;83.21
68107;BME280;54892;47.488;19.026;2024-01-30T10:37:25;102321.09;;;4.35;82.45
68107;BME280;54892;47.488;19.026;2024-01-30T10:40:51;102333.72;;;4.39;81.86
68107;BME280;54892;47.488;19.026;2024-01-30T10:44:19;102324.75;;;4.42;81.86
68107;BME280;54892;47.488;19.026;2024-01-30T10:47:46;102313.62;;;4.40;81.24
68107;BME280;54892;47.488;19.026;2024-01-30T10:51:13;102309.25;;;4.49;81.08
68107;BME280;54892;47.488;19.026;2024-01-30T10:54:37;102305.38;;;4.61;80.73
68107;BME280;54892;47.488;19.026;2024-01-30T10:58:00;102299.47;;;4.59;80.00
68107;BME280;54892;47.488;19.026;2024-01-30T11:01:24;102292.41;;;4.51;80.23
68107;BME280;54892;47.488;19.026;2024-01-30T11:04:48;102286.34;;;4.42;80.57
68107;BME280;54892;47.488;19.026;2024-01-30T11:08:13;102287.66;;;4.47;80.70
68107;BME280;54892;47.488;19.026;2024-01-30T11:11:48;102272.97;;;4.54;80.33
68107;BME280;54892;47.488;19.026;2024-01-30T11:15:12;102281.97;;;4.60;80.63
68107;BME280;54892;47.488;19.026;2024-01-30T11:18:36;102275.00;;;4.77;79.69
68107;BME280;54892;47.488;19.026;2024-01-30T11:21:59;102262.91;;;4.76;79.46
68107;BME280;54892;47.488;19.026;2024-01-30T11:25:25;102259.94;;;4.62;79.15
68107;BME280;54892;47.488;19.026;2024-01-30T11:28:52;102262.38;;;4.64;79.15
68107;BME280;54892;47.488;19.026;2024-01-30T11:32:22;102262.56;;;4.62;79.43
68107;BME280;54892;47.488;19.026;2024-01-30T11:35:45;102259.12;;;4.70;78.53
68107;BME280;54892;47.488;19.026;2024-01-30T11:39:09;102263.22;;;4.64;78.97
68107;BME280;54892;47.488;19.026;2024-01-30T11:42:36;102262.88;;;4.67;78.61
68107;BME280;54892;47.488;19.026;2024-01-30T11:46:01;102260.44;;;4.66;77.73
68107;BME280;54892;47.488;19.026;2024-01-30T11:49:24;102252.41;;;4.67;77.65
68107;BME280;54892;47.488;19.026;2024-01-30T11:52:48;102252.38;;;4.51;78.61
68107;BME280;54892;47.488;19.026;2024-01-30T11:56:12;102252.41;;;4.67;76.74
68107;BME280;54892;47.488;19.026;2024-01-30T11:59:36;102241.13;;;4.59;77.11
68107;BME280;54892;47.488;19.026;2024-01-30T12:02:59;102240.66;;;4.71;76.67
68107;BME280;54892;47.488;19.026;2024-01-30T12:06:23;102229.87;;;4.75;76.01
68107;BME280;54892;47.488;19.026;2024-01-30T12:09:52;102230.84;;;4.65;75.91
68107;BME280;54892;47.488;19.026;2024-01-30T12:13:16;102219.72;;;4.71;75.77
68107;BME280;54892;47.488;19.026;2024-01-30T12:16:40;102224.16;;;4.71;75.84
68107;BME280;54892;47.488;19.026;2024-01-30T12:20:05;102215.81;;;4.76;74.83
68107;BME280;54892;47.488;19.026;2024-01-30T12:23:28;102200.75;;;4.69;75.55
68107;BME280;54892;47.488;19.026;2024-01-30T12:26:52;102200.44;;;4.72;76.16
68107;BME280;54892;47.488;19.026;2024-01-30T12:30:15;102195.38;;;4.79;75.93
68107;BME280;54892;47.488;19.026;2024-01-30T12:33:40;102200.81;;;4.94;74.33
68107;BME280;54892;47.488;19.026;2024-01-30T12:37:04;102202.41;;;4.87;74.61
68107;BME280;54892;47.488;19.026;2024-01-30T12:40:28;102194.25;;;4.82;74.92
68107;BME280;54892;47.488;19.026;2024-01-30T12:43:51;102194.56;;;4.79;75.16
68107;BME280;54892;47.488;19.026;2024-01-30T12:47:15;102189.50;;;5.02;74.45
68107;BME280;54892;47.488;19.026;2024-01-30T12:50:40;102187.03;;;4.84;73.79
68107;BME280;54892;47.488;19.026;2024-01-30T12:54:06;102180.38;;;4.90;74.07
68107;BME280;54892;47.488;19.026;2024-01-30T12:57:29;102188.19;;;5.14;70.91
68107;BME280;54892;47.488;19.026;2024-01-30T13:00:53;102183.78;;;5.15;71.35
68107;BME280;54892;47.488;19.026;2024-01-30T13:04:17;102173.31;;;5.07;70.54
68107;BME280;54892;47.488;19.026;2024-01-30T13:07:41;102171.50;;;5.07;70.63
68107;BME280;54892;47.488;19.026;2024-01-30T13:11:05;102166.44;;;5.14;70.36
68107;BME280;54892;47.488;19.026;2024-01-30T13:14:30;102164.31;;;5.17;69.55
68107;BME280;54892;47.488;19.026;2024-01-30T13:17:53;102161.84;;;5.24;69.96
68107;BME280;54892;47.488;19.026;2024-01-30T13:21:16;102162.66;;;5.25;69.14
68107;BME280;54892;47.488;19.026;2024-01-30T13:24:41;102158.25;;;5.17;68.79
68107;BME280;54892;47.488;19.026;2024-01-30T13:28:04;102150.91;;;5.21;68.08
68107;BME280;54892;47.488;19.026;2024-01-30T13:31:27;102156.13;;;5.29;67.05
68107;BME280;54892;47.488;19.026;2024-01-30T13:34:50;102159.72;;;5.36;66.42
68107;BME280;54892;47.488;19.026;2024-01-30T13:38:13;102155.63;;;5.25;66.10
68107;BME280;54892;47.488;19.026;2024-01-30T13:41:38;102164.12;;;5.19;67.15
68107;BME280;54892;47.488;19.026;2024-01-30T13:45:02;102159.91;;;5.26;66.67
68107;BME280;54892;47.488;19.026;2024-01-30T13:48:44;102158.44;;;5.15;66.20
68107;BME280;54892;47.488;19.026;2024-01-30T13:52:07;102158.28;;;5.09;66.50
68107;BME280;54892;47.488;19.026;2024-01-30T13:55:31;102150.06;;;5.20;66.25
68107;BME280;54892;47.488;19.026;2024-01-30T13:58:55;102149.41;;;5.18;65.90
68107;BME280;54892;47.488;19.026;2024-01-30T14:02:18;102149.25;;;5.11;65.59
68107;BME280;54892;47.488;19.026;2024-01-30T14:05:42;102140.59;;;5.02;66.27
68107;BME280;54892;47.488;19.026;2024-01-30T14:09:05;102138.13;;;5.09;66.27
68107;BME280;54892;47.488;19.026;2024-01-30T14:12:29;102142.56;;;5.09;65.89
68107;BME280;54892;47.488;19.026;2024-01-30T14:15:53;102142.25;;;5.12;65.46
68107;BME280;54892;47.488;19.026;2024-01-30T14:19:17;102139.44;;;5.13;64.41
68107;BME280;54892;47.488;19.026;2024-01-30T14:22:40;102145.34;;;5.15;64.27
68107;BME280;54892;47.488;19.026;2024-01-30T14:26:03;102134.22;;;4.97;64.89
68107;BME280;54892;47.488;19.026;2024-01-30T14:29:27;102149.75;;;4.98;64.86
68107;BME280;54892;47.488;19.026;2024-01-30T14:32:52;102137.66;;;4.89;65.92
68107;BME280;54892;47.488;19.026;2024-01-30T14:36:15;102144.53;;;4.90;66.09
68107;BME280;54892;47.488;19.026;2024-01-30T14:39:38;102136.34;;;4.85;65.91
68107;BME280;54892;47.488;19.026;2024-01-30T14:43:02;102140.59;;;4.86;65.52
68107;BME280;54892;47.488;19.026;2024-01-30T14:46:26;102136.84;;;4.88;64.29
68107;BME280;54892;47.488;19.026;2024-01-30T14:49:50;102136.69;;;4.82;64.61
68107;BME280;54892;47.488;19.026;2024-01-30T14:53:13;102131.94;;;4.77;64.77
68107;BME280;54892;47.488;19.026;2024-01-30T14:56:37;102138.97;;;4.77;64.84
68107;BME280;54892;47.488;19.026;2024-01-30T15:00:00;102133.38;;;4.55;65.86
68107;BME280;54892;47.488;19.026;2024-01-30T15:03:23;102139.28;;;4.57;66.20
68107;BME280;54892;47.488;19.026;2024-01-30T15:06:49;102140.41;;;4.46;66.68
68107;BME280;54892;47.488;19.026;2024-01-30T15:10:12;102131.41;;;4.32;67.42
68107;BME280;54892;47.488;19.026;2024-01-30T15:13:35;102126.66;;;4.28;68.02
68107;BME280;54892;47.488;19.026;2024-01-30T15:16:58;102135.63;;;4.25;68.53
68107;BME280;54892;47.488;19.026;2024-01-30T15:20:22;102137.56;;;4.23;68.78
68107;BME280;54892;47.488;19.026;2024-01-30T15:23:46;102133.97;;;4.16;69.03
68107;BME280;54892;47.488;19.026;2024-01-30T15:27:10;102130.88;;;4.12;69.27
68107;BME280;54892;47.488;19.026;2024-01-30T15:30:33;102136.72;;;4.06;69.76
68107;BME280;54892;47.488;19.026;2024-01-30T15:33:56;102127.56;;;4.02;70.20
68107;BME280;54892;47.488;19.026;2024-01-30T15:37:19;102133.41;;;3.95;70.64
68107;BME280;54892;47.488;19.026;2024-01-30T15:40:44;102124.75;;;3.95;70.76
68107;BME280;54892;47.488;19.026;2024-01-30T15:44:07;102129.47;;;3.91;70.91
68107;BME280;54892;47.488;19.026;2024-01-30T15:47:31;102128.78;;;3.81;71.34
68107;BME280;54892;47.488;19.026;2024-01-30T15:50:55;102122.72;;;3.72;71.80
68107;BME280;54892;47.488;19.026;2024-01-30T15:54:18;102129.22;;;3.68;72.32
68107;BME280;54892;47.488;19.026;2024-01-30T15:57:43;102135.06;;;3.62;72.65
68107;BME280;54892;47.488;19.026;2024-01-30T16:01:06;102131.28;;;3.56;73.05
68107;BME280;54892;47.488;19.026;2024-01-30T16:04:30;102130.72;;;3.44;73.37
68107;BME280;54892;47.488;19.026;2024-01-30T16:07:53;102139.00;;;3.40;73.73
68107;BME280;54892;47.488;19.026;2024-01-30T16:11:16;102136.50;;;3.30;74.08
68107;BME280;54892;47.488;19.026;2024-01-30T16:14:41;102133.84;;;3.22;74.42
68107;BME280;54892;47.488;19.026;2024-01-30T16:18:04;102137.06;;;3.15;74.67
68107;BME280;54892;47.488;19.026;2024-01-30T16:21:27;102144.97;;;3.05;75.18
68107;BME280;54892;47.488;19.026;2024-01-30T16:24:50;102136.13;;;2.98;75.56
68107;BME280;54892;47.488;19.026;2024-01-30T16:28:13;102140.09;;;2.84;76.17
68107;BME280;54892;47.488;19.026;2024-01-30T16:31:38;102134.13;;;2.74;76.65
68107;BME280;54892;47.488;19.026;2024-01-30T16:35:01;102137.03;;;2.71;76.95
68107;BME280;54892;47.488;19.026;2024-01-30T16:38:24;102131.44;;;2.66;77.36
68107;BME280;54892;47.488;19.026;2024-01-30T16:41:47;102130.41;;;2.58;77.68
68107;BME280;54892;47.488;19.026;2024-01-30T16:45:11;102134.00;;;2.57;77.81
68107;BME280;54892;47.488;19.026;2024-01-30T16:48:35;102126.22;;;2.48;78.18
68107;BME280;54892;47.488;19.026;2024-01-30T16:51:58;102133.66;;;2.42;78.38
68107;BME280;54892;47.488;19.026;2024-01-30T16:55:22;102139.31;;;2.38;78.59
68107;BME280;54892;47.488;19.026;2024-01-30T16:58:48;102136.78;;;2.28;78.95
68107;BME280;54892;47.488;19.026;2024-01-30T17:02:11;102137.91;;;2.25;79.22
68107;BME280;54892;47.488;19.026;2024-01-30T17:05:35;102134.91;;;2.20;79.46
68107;BME280;54892;47.488;19.026;2024-01-30T17:08:58;102135.28;;;2.07;79.91
68107;BME280;54892;47.488;19.026;2024-01-30T17:12:21;102129.34;;;2.15;79.84
68107;BME280;54892;47.488;19.026;2024-01-30T17:15:44;102135.06;;;2.19;80.08
68107;BME280;54892;47.488;19.026;2024-01-30T17:19:08;102140.25;;;2.01;81.42
68107;BME280;54892;47.488;19.026;2024-01-30T17:22:32;102140.38;;;1.99;81.80
68107;BME280;54892;47.488;19.026;2024-01-30T17:25:56;102128.19;;;2.00;81.51
68107;BME280;54892;47.488;19.026;2024-01-30T17:29:19;102129.50;;;2.04;81.65
68107;BME280;54892;47.488;19.026;2024-01-30T17:32:42;102129.66;;;2.02;81.73
68107;BME280;54892;47.488;19.026;2024-01-30T17:36:05;102131.13;;;1.87;81.80
68107;BME280;54892;47.488;19.026;2024-01-30T17:39:29;102138.84;;;1.78;82.22
68107;BME280;54892;47.488;19.026;2024-01-30T17:42:53;102124.41;;;1.84;82.19
68107;BME280;54892;47.488;19.026;2024-01-30T17:46:16;102124.19;;;1.77;82.42
68107;BME280;54892;47.488;19.026;2024-01-30T17:49:40;102120.50;;;1.70;83.12
68107;BME280;54892;47.488;19.026;2024-01-30T17:53:04;102125.34;;;1.55;83.84
68107;BME280;54892;47.488;19.026;2024-01-30T17:56:28;102124.25;;;1.58;84.19
68107;BME280;54892;47.488;19.026;2024-01-30T17:59:51;102124.38;;;1.56;84.32
68107;BME280;54892;47.488;19.026;2024-01-30T18:03:14;102122.88;;;1.54;84.61
68107;BME280;54892;47.488;19.026;2024-01-30T18:06:37;102124.00;;;1.51;84.92
68107;BME280;54892;47.488;19.026;2024-01-30T18:10:00;102129.06;;;1.43;85.28
68107;BME280;54892;47.488;19.026;2024-01-30T18:13:25;102122.66;;;1.37;85.61
68107;BME280;54892;47.488;19.026;2024-01-30T18:16:48;102129.63;;;1.46;85.44
68107;BME280;54892;47.488;19.026;2024-01-30T18:20:11;102123.75;;;1.34;85.89
68107;BME280;54892;47.488;19.026;2024-01-30T18:23:34;102116.50;;;1.38;86.01
68107;BME280;54892;47.488;19.026;2024-01-30T18:26:57;102116.38;;;1.30;86.46
68107;BME280;54892;47.488;19.026;2024-01-30T18:30:22;102112.00;;;1.20;87.08
68107;BME280;54892;47.488;19.026;2024-01-30T18:33:45;102118.03;;;1.21;87.25
68107;BME280;54892;47.488;19.026;2024-01-30T18:37:12;102118.44;;;1.26;87.10
68107;BME280;54892;47.488;19.026;2024-01-30T18:40:35;102120.06;;;1.27;87.07
68107;BME280;54892;47.488;19.026;2024-01-30T18:43:59;102123.53;;;1.18;87.50
68107;BME280;54892;47.488;19.026;2024-01-30T18:47:26;102117.78;;;1.14;87.88
68107;BME280;54892;47.488;19.026;2024-01-30T18:50:50;102116.97;;;1.04;88.62
68107;BME280;54892;47.488;19.026;2024-01-30T18:54:14;102120.25;;;1.06;88.56
68107;BME280;54892;47.488;19.026;2024-01-30T18:57:39;102122.72;;;1.08;88.60
68107;BME280;54892;47.488;19.026;2024-01-30T19:01:04;102116.56;;;1.09;88.47
68107;BME280;54892;47.488;19.026;2024-01-30T19:04:32;102117.25;;;1.01;88.50
68107;BME280;54892;47.488;19.026;2024-01-30T19:07:57;102114.66;;;1.01;88.51